Time;durP1;ratioP1;P1;durP2;ratioP2;P2;SDS_P1;SDS_P2;PMS_P1;PMS_P2;Temp;Humidity;BMP_temperature;BMP_pressure;BME280_temperature;BME280_humidity;BME280_pressure;Samples;Min_cycle;Max_cycle;Signal;HPM_P1;HPM_P2
2023/03/13 00:01:46;;;;;;;;;;;;;;;6.97;35.72;95353.00;5028243;28;19945;-62
2023/03/13 00:04:13;;;;;;;;;;;;;;;7.29;34.48;95353.53;5029208;28;20026;-62
2023/03/13 00:06:41;;;;;;;;;;;;;;;7.05;34.93;95352.69;5028702;28;19946;-60
2023/03/13 00:09:09;;;;;;;;;;;;;;;6.96;34.91;95349.59;5028400;28;20420;-60
2023/03/13 00:11:36;;;;;;;;;;;;;;;7.22;35.03;95357.03;5028825;28;19947;-61
2023/03/13 00:14:03;;;;;;;;;;;;;;;7.00;35.12;95355.16;5030864;28;19955;-63
2023/03/13 00:16:30;;;;;;;;;;;;;;;7.28;34.54;95351.97;5030766;28;19946;-62
2023/03/13 00:18:57;;;;;;;;;;;;;;;7.00;35.01;95361.19;5027704;28;19974;-61
2023/03/13 00:21:25;;;;;;;;;;;;;;;6.76;35.45;95356.09;5027354;28;20431;-63
2023/03/13 00:23:52;;;;;;;;;;;;;;;6.90;34.87;95345.28;5028141;28;19954;-62
2023/03/13 00:26:20;;;;;;;;;;;;;;;6.70;35.71;95365.56;5027941;28;20020;-64
2023/03/13 00:28:47;;;;;;;;;;;;;;;6.64;36.13;95366.44;5027624;28;19940;-62
2023/03/13 00:31:16;;;;;;;;;;;;;;;7.08;35.43;95373.06;5026493;28;19958;-64
2023/03/13 00:33:46;;;;;;;;;;;;;;;7.24;34.65;95369.06;5015260;28;19938;-65
2023/03/13 00:36:14;;;;;;;;;;;;;;;7.01;35.01;95367.16;5027041;28;20018;-62
2023/03/13 00:38:42;;;;;;;;;;;;;;;6.71;35.94;95367.19;5027842;28;19946;-64
2023/03/13 00:41:12;;;;;;;;;;;;;;;6.81;35.68;95367.44;5027211;28;20042;-64
2023/03/13 00:43:39;;;;;;;;;;;;;;;7.13;34.65;95360.97;5029103;28;19964;-60
2023/03/13 00:46:08;;;;;;;;;;;;;;;7.21;35.29;95366.91;5031687;28;20007;-63
2023/03/13 00:48:35;;;;;;;;;;;;;;;7.14;34.74;95366.97;5031908;28;20004;-66
2023/03/13 00:51:02;;;;;;;;;;;;;;;7.05;35.04;95370.91;5031143;28;20452;-62
2023/03/13 00:53:29;;;;;;;;;;;;;;;6.97;35.60;95369.41;5031346;28;20180;-63
2023/03/13 00:55:58;;;;;;;;;;;;;;;7.11;34.78;95357.81;5029932;28;20003;-62
2023/03/13 00:58:26;;;;;;;;;;;;;;;6.58;35.62;95362.13;5017313;28;20015;-61
2023/03/13 01:00:53;;;;;;;;;;;;;;;6.96;35.47;95365.22;5031267;28;19950;-64
2023/03/13 01:03:20;;;;;;;;;;;;;;;6.60;35.52;95370.50;5030079;28;20597;-62
2023/03/13 01:05:57;;;;;;;;;;;;;;;6.31;35.77;95366.06;5030969;28;19947;-63
2023/03/13 01:08:25;;;;;;;;;;;;;;;6.77;35.60;95366.28;5031256;28;19952;-61
2023/03/13 01:11:01;;;;;;;;;;;;;;;6.83;35.33;95368.00;5030297;28;20006;-64
2023/03/13 01:13:31;;;;;;;;;;;;;;;6.80;35.92;95373.66;5031182;28;19945;-62
2023/03/13 01:16:18;;;;;;;;;;;;;;;6.77;35.32;95370.72;5030642;28;19993;-66
2023/03/13 01:18:47;;;;;;;;;;;;;;;7.11;34.77;95368.25;5031056;28;19948;-61
2023/03/13 01:21:14;;;;;;;;;;;;;;;7.08;34.98;95363.44;5030492;28;20019;-62
2023/03/13 01:23:41;;;;;;;;;;;;;;;6.94;34.88;95361.25;5030728;28;19955;-61
2023/03/13 01:26:08;;;;;;;;;;;;;;;6.85;35.67;95357.38;5030334;28;20296;-63
2023/03/13 01:28:35;;;;;;;;;;;;;;;7.13;34.58;95360.19;5030575;28;20007;-61
2023/03/13 01:31:31;;;;;;;;;;;;;;;7.30;35.00;95360.34;5030365;28;20023;-63
2023/03/13 01:34:00;;;;;;;;;;;;;;;7.05;35.44;95374.31;5018300;28;19955;-60
2023/03/13 01:36:27;;;;;;;;;;;;;;;7.11;35.38;95373.44;5045771;28;19992;-61
2023/03/13 01:39:12;;;;;;;;;;;;;;;7.14;35.22;95382.63;5030046;28;19945;-61
2023/03/13 01:41:38;;;;;;;;;;;;;;;7.08;35.26;95386.91;5029603;28;19944;-62
2023/03/13 01:44:05;;;;;;;;;;;;;;;7.25;35.21;95388.88;5029292;28;20008;-62
2023/03/13 01:46:34;;;;;;;;;;;;;;;7.28;35.92;95385.84;5028522;28;19941;-64
2023/03/13 01:49:33;;;;;;;;;;;;;;;7.24;36.19;95392.50;5028756;28;20416;-63
2023/03/13 01:52:20;;;;;;;;;;;;;;;6.96;36.38;95391.28;5032089;28;19951;-62
2023/03/13 01:54:58;;;;;;;;;;;;;;;6.92;36.17;95397.94;5028559;28;19943;-59
2023/03/13 01:57:29;;;;;;;;;;;;;;;6.96;36.48;95391.28;5044325;28;20159;-60
2023/03/13 02:00:01;;;;;;;;;;;;;;;6.92;36.31;95389.31;5028826;28;20008;-61
2023/03/13 02:02:40;;;;;;;;;;;;;;;6.72;37.53;95394.78;5031005;28;19943;-63
2023/03/13 02:05:07;;;;;;;;;;;;;;;6.71;37.30;95393.22;5030394;28;20038;-65
2023/03/13 02:07:39;;;;;;;;;;;;;;;6.73;37.00;95396.38;5028033;28;20039;-64
2023/03/13 02:10:07;;;;;;;;;;;;;;;6.61;37.85;95392.91;5030782;28;19945;-61
2023/03/13 02:12:35;;;;;;;;;;;;;;;6.60;37.20;95396.56;5030400;28;20720;-61
2023/03/13 02:15:07;;;;;;;;;;;;;;;6.45;38.31;95392.72;5030358;28;19943;-63
2023/03/13 02:17:35;;;;;;;;;;;;;;;6.48;38.40;95403.47;5028202;28;19947;-61
2023/03/13 02:20:03;;;;;;;;;;;;;;;6.51;38.04;95403.06;5030125;28;20649;-65
2023/03/13 02:22:45;;;;;;;;;;;;;;;6.46;37.91;95405.50;5015830;28;20409;-60
2023/03/13 02:25:22;;;;;;;;;;;;;;;6.55;37.89;95408.63;5033461;28;19998;-63
2023/03/13 02:28:13;;;;;;;;;;;;;;;6.53;38.70;95403.63;5031351;28;19984;-63
2023/03/13 02:30:42;;;;;;;;;;;;;;;6.66;37.76;95416.50;5030026;28;19991;-62
2023/03/13 02:33:11;;;;;;;;;;;;;;;6.54;38.14;95426.06;5029480;28;19968;-60
2023/03/13 02:35:37;;;;;;;;;;;;;;;6.37;39.00;95422.41;5033992;28;19943;-60
2023/03/13 02:38:10;;;;;;;;;;;;;;;6.55;38.25;95429.47;5027775;28;20414;-60
2023/03/13 02:40:38;;;;;;;;;;;;;;;6.52;38.65;95435.88;5029273;28;19952;-65
2023/03/13 02:43:08;;;;;;;;;;;;;;;6.44;38.34;95449.19;5027648;28;19949;-63
2023/03/13 02:45:34;;;;;;;;;;;;;;;6.46;38.50;95452.34;5027737;28;19943;-60
2023/03/13 02:48:01;;;;;;;;;;;;;;;6.27;38.86;95447.34;5028417;28;19949;-62
2023/03/13 02:50:28;;;;;;;;;;;;;;;6.22;39.38;95461.03;5029297;28;19954;-61
2023/03/13 02:53:01;;;;;;;;;;;;;;;6.30;38.84;95468.53;5028733;28;19956;-60
2023/03/13 02:55:31;;;;;;;;;;;;;;;6.10;39.43;95457.50;5038452;28;20000;-64
2023/03/13 02:57:58;;;;;;;;;;;;;;;6.23;39.55;95461.81;5027837;28;20049;-63
2023/03/13 03:00:27;;;;;;;;;;;;;;;6.11;39.48;95466.94;5027949;28;19990;-63
2023/03/13 03:02:55;;;;;;;;;;;;;;;6.17;39.31;95468.66;5027928;28;19963;-63
2023/03/13 03:05:21;;;;;;;;;;;;;;;6.25;39.47;95458.00;5027898;28;19945;-61
2023/03/13 03:07:49;;;;;;;;;;;;;;;6.27;39.49;95458.56;5027902;28;19961;-61
2023/03/13 03:10:16;;;;;;;;;;;;;;;6.18;38.97;95465.06;5028518;28;20007;-64
2023/03/13 03:12:44;;;;;;;;;;;;;;;6.06;40.13;95456.34;5027380;28;20084;-65
2023/03/13 03:15:11;;;;;;;;;;;;;;;6.02;39.44;95465.63;5027874;28;19956;-61
2023/03/13 03:17:42;;;;;;;;;;;;;;;5.82;40.17;95470.16;5017131;28;19987;-60
2023/03/13 03:20:10;;;;;;;;;;;;;;;5.86;40.29;95481.72;5043402;28;19949;-60
2023/03/13 03:22:40;;;;;;;;;;;;;;;5.92;39.96;95486.09;5026786;28;19978;-60
2023/03/13 03:25:08;;;;;;;;;;;;;;;5.92;40.15;95486.09;5026626;28;19937;-61
2023/03/13 03:27:35;;;;;;;;;;;;;;;5.88;39.85;95500.50;5028306;28;20319;-64
2023/03/13 03:30:05;;;;;;;;;;;;;;;6.04;40.08;95505.19;5027035;28;19942;-60
2023/03/13 03:32:34;;;;;;;;;;;;;;;5.95;39.91;95507.25;5028129;28;20402;-64
2023/03/13 03:35:01;;;;;;;;;;;;;;;5.84;40.39;95509.75;5028212;28;19965;-61
2023/03/13 03:37:28;;;;;;;;;;;;;;;5.91;40.21;95511.28;5035411;28;19948;-62
2023/03/13 03:39:56;;;;;;;;;;;;;;;5.83;39.80;95508.97;5026665;28;19986;-65
2023/03/13 03:42:23;;;;;;;;;;;;;;;5.73;40.44;95518.22;5026151;28;20421;-63
2023/03/13 03:44:50;;;;;;;;;;;;;;;5.52;40.44;95513.31;5028961;28;19990;-63
2023/03/13 03:47:17;;;;;;;;;;;;;;;5.72;39.96;95525.22;5026642;28;19944;-64
2023/03/13 03:49:46;;;;;;;;;;;;;;;5.79;40.07;95538.16;5023811;28;20407;-62
2023/03/13 03:52:14;;;;;;;;;;;;;;;5.79;40.31;95543.34;5026504;28;20059;-60
2023/03/13 03:54:42;;;;;;;;;;;;;;;5.67;40.31;95545.03;5027360;28;19966;-64
2023/03/13 03:57:09;;;;;;;;;;;;;;;5.79;40.31;95538.97;5027801;28;19965;-64
2023/03/13 03:59:37;;;;;;;;;;;;;;;5.66;40.49;95538.22;5026480;28;20414;-62
2023/03/13 04:02:07;;;;;;;;;;;;;;;5.64;39.75;95550.66;5042895;28;20339;-60
2023/03/13 04:04:35;;;;;;;;;;;;;;;5.64;40.22;95551.44;5031296;28;20382;-60
2023/03/13 04:07:10;;;;;;;;;;;;;;;5.51;40.81;95550.72;5025048;28;19945;-63
2023/03/13 04:09:38;;;;;;;;;;;;;;;5.54;40.57;95551.09;5026281;28;19947;-61
2023/03/13 04:12:07;;;;;;;;;;;;;;;5.62;40.29;95563.84;5025883;28;20505;-65
2023/03/13 04:14:39;;;;;;;;;;;;;;;5.71;39.92;95572.22;5026600;28;20885;-60
2023/03/13 04:17:09;;;;;;;;;;;;;;;5.65;40.34;95573.84;5026253;28;20025;-60
2023/03/13 04:19:36;;;;;;;;;;;;;;;5.60;40.23;95575.47;5028983;28;19952;-62
2023/03/13 04:22:02;;;;;;;;;;;;;;;5.20;41.21;95580.03;5029120;28;20056;-62
2023/03/13 04:24:31;;;;;;;;;;;;;;;5.34;41.21;95584.19;5030736;28;20051;-63
2023/03/13 04:26:58;;;;;;;;;;;;;;;5.49;40.77;95574.31;5030024;28;19956;-59
2023/03/13 04:29:25;;;;;;;;;;;;;;;5.52;40.89;95583.50;5030801;28;20037;-63
2023/03/13 04:31:59;;;;;;;;;;;;;;;5.53;40.36;95577.31;5029962;28;20055;-62
2023/03/13 04:34:36;;;;;;;;;;;;;;;5.59;40.45;95590.28;5030306;28;19969;-63
2023/03/13 04:37:35;;;;;;;;;;;;;;;5.60;40.25;95591.06;5029938;28;20000;-61
2023/03/13 04:40:20;;;;;;;;;;;;;;;5.02;41.61;95608.44;5031531;28;19963;-63
2023/03/13 04:43:02;;;;;;;;;;;;;;;5.38;40.85;95607.97;5045729;28;19981;-61
2023/03/13 04:45:48;;;;;;;;;;;;;;;5.38;41.22;95613.97;5031884;28;19958;-64
2023/03/13 04:48:34;;;;;;;;;;;;;;;5.63;40.21;95616.66;5021444;28;19946;-63
2023/03/13 04:51:20;;;;;;;;;;;;;;;5.55;40.67;95614.28;5030443;28;19967;-64
2023/03/13 04:54:09;;;;;;;;;;;;;;;5.68;40.79;95616.81;5030771;28;19968;-63
2023/03/13 04:56:42;;;;;;;;;;;;;;;5.56;40.72;95621.88;5031380;28;20379;-63
2023/03/13 04:59:21;;;;;;;;;;;;;;;5.25;40.88;95615.78;5027393;28;20388;-61
2023/03/13 05:02:03;;;;;;;;;;;;;;;5.51;41.17;95616.50;5024652;28;19954;-64
2023/03/13 05:04:57;;;;;;;;;;;;;;;5.74;40.23;95627.22;5031530;28;19953;-63
2023/03/13 05:07:43;;;;;;;;;;;;;;;5.83;40.43;95627.78;5029117;28;20410;-64
2023/03/13 05:10:13;;;;;;;;;;;;;;;5.70;40.38;95625.22;5032084;28;19956;-65
2023/03/13 05:12:44;;;;;;;;;;;;;;;5.59;40.95;95620.66;5029545;28;19950;-62
2023/03/13 05:15:34;;;;;;;;;;;;;;;5.37;40.88;95627.13;5029065;28;20008;-64
2023/03/13 05:18:19;;;;;;;;;;;;;;;5.70;40.97;95625.22;5030991;28;20131;-64
2023/03/13 05:20:59;;;;;;;;;;;;;;;5.68;40.90;95632.41;5029240;28;20012;-66
2023/03/13 05:23:45;;;;;;;;;;;;;;;5.87;41.20;95639.38;5030125;28;20047;-64
2023/03/13 05:26:30;;;;;;;;;;;;;;;6.05;40.82;95653.28;5029577;28;19954;-63
2023/03/13 05:29:17;;;;;;;;;;;;;;;6.12;39.87;95653.25;5035995;28;19962;-63
2023/03/13 05:31:56;;;;;;;;;;;;;;;6.11;40.25;95649.06;5029628;28;20442;-62
2023/03/13 05:34:52;;;;;;;;;;;;;;;6.18;40.35;95653.19;5026346;28;19961;-61
2023/03/13 05:37:35;;;;;;;;;;;;;;;6.36;40.44;95649.88;5028096;28;20729;-63
2023/03/13 05:40:21;;;;;;;;;;;;;;;6.38;40.73;95657.47;5033109;28;20252;-65
2023/03/13 05:43:07;;;;;;;;;;;;;;;6.42;40.47;95654.25;5026264;28;20146;-61
2023/03/13 05:45:43;;;;;;;;;;;;;;;6.36;40.26;95657.69;5035895;28;19949;-65
2023/03/13 05:48:22;;;;;;;;;;;;;;;6.53;40.14;95655.38;5031684;28;19957;-64
2023/03/13 05:51:07;;;;;;;;;;;;;;;6.64;40.74;95658.09;5029750;28;19950;-62
2023/03/13 05:54:00;;;;;;;;;;;;;;;6.81;39.59;95661.75;5026163;28;19989;-63
2023/03/13 05:56:56;;;;;;;;;;;;;;;6.74;39.55;95663.63;5016049;28;19957;-63
2023/03/13 05:59:34;;;;;;;;;;;;;;;6.78;40.20;95664.00;5028577;28;19958;-65
2023/03/13 06:02:22;;;;;;;;;;;;;;;6.97;40.21;95663.81;5029568;28;19948;-66
2023/03/13 06:04:49;;;;;;;;;;;;;;;7.07;40.53;95664.16;5032551;28;19948;-64
2023/03/13 06:07:16;;;;;;;;;;;;;;;6.89;39.88;95671.13;5029488;28;20309;-62
2023/03/13 06:09:43;;;;;;;;;;;;;;;6.82;40.76;95680.81;5042281;28;20320;-63
2023/03/13 06:12:10;;;;;;;;;;;;;;;6.98;39.97;95675.03;5030654;28;19952;-62
2023/03/13 06:14:38;;;;;;;;;;;;;;;7.11;40.18;95678.34;5029978;28;20027;-62
2023/03/13 06:17:20;;;;;;;;;;;;;;;7.25;40.25;95670.38;5029072;28;19990;-61
2023/03/13 06:19:47;;;;;;;;;;;;;;;7.31;39.59;95672.94;5031499;28;20427;-61
2023/03/13 06:22:15;;;;;;;;;;;;;;;7.26;39.75;95678.00;5030096;28;19946;-62
2023/03/13 06:24:43;;;;;;;;;;;;;;;7.36;40.09;95673.06;5030065;28;19948;-63
2023/03/13 06:27:10;;;;;;;;;;;;;;;7.34;39.83;95669.88;5030215;28;20044;-62
2023/03/13 06:29:36;;;;;;;;;;;;;;;7.22;39.89;95681.25;5030438;28;19963;-63
2023/03/13 06:32:03;;;;;;;;;;;;;;;7.30;39.87;95683.59;5030276;28;19979;-63
2023/03/13 06:34:30;;;;;;;;;;;;;;;7.47;40.10;95682.00;5030654;28;19956;-63
2023/03/13 06:36:57;;;;;;;;;;;;;;;6.53;40.99;95650.19;5029909;28;19976;-62
2023/03/13 06:39:24;;;;;;;;;;;;;;;7.17;39.57;95671.47;5029519;28;20350;-64
2023/03/13 06:41:51;;;;;;;;;;;;;;;7.33;39.77;95655.28;5026958;28;20586;-64
2023/03/13 06:44:17;;;;;;;;;;;;;;;7.40;39.15;95647.38;5028691;28;19955;-63
2023/03/13 06:46:44;;;;;;;;;;;;;;;7.52;39.62;95650.88;5028825;28;19950;-62
2023/03/13 06:49:12;;;;;;;;;;;;;;;7.66;39.48;95653.09;5029998;28;20009;-65
2023/03/13 06:51:38;;;;;;;;;;;;;;;7.82;39.25;95662.13;5028648;28;20438;-62
2023/03/13 06:54:05;;;;;;;;;;;;;;;7.89;40.58;95662.84;5030435;28;19939;-61
2023/03/13 06:56:32;;;;;;;;;;;;;;;7.81;41.01;95669.16;5030093;28;20092;-62
2023/03/13 06:58:58;;;;;;;;;;;;;;;7.88;41.04;95667.25;5030249;28;20032;-63
2023/03/13 07:01:26;;;;;;;;;;;;;;;8.10;40.62;95659.78;5029544;28;19953;-61
2023/03/13 07:03:52;;;;;;;;;;;;;;;8.15;39.17;95657.28;5030409;28;20451;-63
2023/03/13 07:06:19;;;;;;;;;;;;;;;8.27;39.15;95654.75;5029421;28;19976;-64
2023/03/13 07:08:46;;;;;;;;;;;;;;;8.10;38.84;95657.16;5030159;28;20434;-63
2023/03/13 07:11:13;;;;;;;;;;;;;;;7.87;39.11;95649.22;5029293;28;19985;-62
2023/03/13 07:13:40;;;;;;;;;;;;;;;8.24;37.90;95656.00;5029747;28;19945;-64
2023/03/13 07:16:08;;;;;;;;;;;;;;;8.39;38.46;95658.19;5029548;28;20385;-62
2023/03/13 07:18:36;;;;;;;;;;;;;;;8.37;37.66;95655.81;5029638;28;19977;-64
2023/03/13 07:21:06;;;;;;;;;;;;;;;8.42;37.50;95652.53;5029427;28;19987;-62
2023/03/13 07:23:34;;;;;;;;;;;;;;;8.31;37.75;95646.25;5030334;28;19983;-61
2023/03/13 07:26:02;;;;;;;;;;;;;;;8.31;37.71;95651.47;5032670;28;19948;-64
2023/03/13 07:28:30;;;;;;;;;;;;;;;8.45;37.62;95645.03;5029612;28;20405;-62
2023/03/13 07:31:16;;;;;;;;;;;;;;;8.32;37.43;95647.84;5029540;28;19952;-64
2023/03/13 07:33:43;;;;;;;;;;;;;;;8.54;37.48;95656.75;5029801;28;19947;-64
2023/03/13 07:36:11;;;;;;;;;;;;;;;8.57;37.48;95640.66;5027884;28;19991;-62
2023/03/13 07:38:38;;;;;;;;;;;;;;;8.67;37.83;95640.88;5016838;28;19944;-64
2023/03/13 07:41:05;;;;;;;;;;;;;;;8.79;36.87;95643.53;5028729;28;20030;-64
2023/03/13 07:43:32;;;;;;;;;;;;;;;9.01;36.19;95642.72;5030072;28;19984;-63
2023/03/13 07:46:00;;;;;;;;;;;;;;;9.08;37.11;95651.28;5028979;28;20008;-63
2023/03/13 07:48:28;;;;;;;;;;;;;;;9.23;36.73;95643.75;5030570;28;19980;-64
2023/03/13 07:50:55;;;;;;;;;;;;;;;9.31;36.77;95644.41;5029154;28;20100;-62
2023/03/13 07:53:22;;;;;;;;;;;;;;;9.47;36.35;95648.97;5028839;28;20437;-60
2023/03/13 07:55:59;;;;;;;;;;;;;;;9.11;35.97;95648.19;5029492;28;19999;-61
2023/03/13 07:58:28;;;;;;;;;;;;;;;9.45;36.42;95643.16;5016830;28;20035;-64
2023/03/13 08:00:55;;;;;;;;;;;;;;;9.68;36.10;95640.50;5028869;28;19951;-63
2023/03/13 08:03:22;;;;;;;;;;;;;;;9.67;35.81;95625.84;5028452;28;19954;-63
2023/03/13 08:05:59;;;;;;;;;;;;;;;9.51;34.83;95629.16;5029045;28;19946;-65
2023/03/13 08:08:26;;;;;;;;;;;;;;;9.55;35.56;95625.06;5029571;28;19951;-63
2023/03/13 08:10:53;;;;;;;;;;;;;;;9.68;35.17;95630.84;5028796;28;19950;-65
2023/03/13 08:13:20;;;;;;;;;;;;;;;9.70;35.76;95630.59;5029069;28;19957;-63
2023/03/13 08:15:47;;;;;;;;;;;;;;;9.63;35.33;95629.94;5028897;28;19984;-63
2023/03/13 08:18:14;;;;;;;;;;;;;;;9.74;38.21;95626.50;5029514;28;20000;-61
2023/03/13 08:20:40;;;;;;;;;;;;;;;10.16;37.96;95622.63;5028784;28;19989;-63
2023/03/13 08:23:10;;;;;;;;;;;;;;;10.07;35.47;95622.16;5029249;28;19944;-64
2023/03/13 08:25:36;;;;;;;;;;;;;;;10.29;35.91;95624.97;5028398;28;20059;-63
2023/03/13 08:28:03;;;;;;;;;;;;;;;10.68;34.31;95629.28;5028915;28;19960;-63
2023/03/13 08:30:31;;;;;;;;;;;;;;;10.68;34.16;95624.03;5028570;28;20367;-67
2023/03/13 08:32:57;;;;;;;;;;;;;;;10.84;33.80;95623.25;5029098;28;20355;-64
2023/03/13 08:35:24;;;;;;;;;;;;;;;10.91;33.56;95621.25;5029227;28;20000;-65
2023/03/13 08:37:51;;;;;;;;;;;;;;;10.97;33.33;95630.78;5028643;28;19946;-64
2023/03/13 08:40:18;;;;;;;;;;;;;;;10.18;34.02;95634.44;5029280;28;19956;-62
2023/03/13 08:42:44;;;;;;;;;;;;;;;10.65;33.23;95635.00;5028699;28;20016;-65
2023/03/13 08:45:11;;;;;;;;;;;;;;;10.92;33.70;95629.91;5029684;28;19948;-64
2023/03/13 08:47:38;;;;;;;;;;;;;;;11.01;33.36;95624.03;5043374;28;20366;-61
2023/03/13 08:50:05;;;;;;;;;;;;;;;11.04;33.21;95623.53;5029237;28;20299;-66
2023/03/13 08:52:32;;;;;;;;;;;;;;;11.31;33.13;95617.63;5028362;28;20379;-61
2023/03/13 08:54:59;;;;;;;;;;;;;;;11.35;33.32;95611.66;5044231;28;20422;-62
2023/03/13 08:57:25;;;;;;;;;;;;;;;11.50;32.76;95611.84;5028468;28;19987;-62
2023/03/13 08:59:52;;;;;;;;;;;;;;;11.53;32.51;95610.59;5029137;28;20328;-64
2023/03/13 09:02:19;;;;;;;;;;;;;;;11.76;31.85;95602.47;5029340;28;19945;-65
2023/03/13 09:04:47;;;;;;;;;;;;;;;11.82;32.14;95609.38;5018315;28;20035;-64
2023/03/13 09:07:14;;;;;;;;;;;;;;;11.69;31.79;95613.19;5032323;28;20020;-62
2023/03/13 09:09:40;;;;;;;;;;;;;;;11.17;31.63;95612.72;5032473;28;19948;-64
2023/03/13 09:12:07;;;;;;;;;;;;;;;11.56;30.65;95607.47;5031717;28;19946;-62
2023/03/13 09:14:47;;;;;;;;;;;;;;;11.49;30.97;95605.03;5032621;28;20435;-64
2023/03/13 09:17:14;;;;;;;;;;;;;;;11.99;31.26;95610.09;5032010;28;19967;-63
2023/03/13 09:19:41;;;;;;;;;;;;;;;11.82;31.23;95597.06;5032285;28;19990;-61
2023/03/13 09:22:25;;;;;;;;;;;;;;;12.23;29.62;95590.38;5031932;28;19947;-63
2023/03/13 09:24:51;;;;;;;;;;;;;;;12.29;29.87;95592.03;5032755;28;20039;-63
2023/03/13 09:27:18;;;;;;;;;;;;;;;12.67;30.48;95597.09;5031473;28;19950;-64
2023/03/13 09:29:45;;;;;;;;;;;;;;;12.86;29.90;95594.88;5031792;28;19948;-65
2023/03/13 09:32:12;;;;;;;;;;;;;;;13.26;30.47;95591.75;5018233;28;20034;-61
2023/03/13 09:34:38;;;;;;;;;;;;;;;13.51;30.22;95592.66;5032160;28;20009;-64
2023/03/13 09:37:05;;;;;;;;;;;;;;;13.16;29.29;95603.78;5032393;28;20014;-62
2023/03/13 09:39:33;;;;;;;;;;;;;;;13.07;29.52;95597.41;5035286;28;20016;-65
2023/03/13 09:42:08;;;;;;;;;;;;;;;13.47;29.36;95590.78;5029602;28;19994;-61
2023/03/13 09:44:42;;;;;;;;;;;;;;;13.81;28.60;95586.75;5031843;28;19964;-63
2023/03/13 09:47:15;;;;;;;;;;;;;;;14.12;29.18;95585.78;5048105;28;19946;-63
2023/03/13 09:50:09;;;;;;;;;;;;;;;14.19;28.60;95583.69;5031960;28;19959;-66
2023/03/13 09:52:39;;;;;;;;;;;;;;;13.99;28.57;95586.28;5037666;28;19979;-64
2023/03/13 09:55:16;;;;;;;;;;;;;;;13.52;27.91;95582.94;5031563;28;19991;-62
2023/03/13 09:57:42;;;;;;;;;;;;;;;13.90;28.31;95585.19;5031717;28;20003;-63
2023/03/13 10:00:12;;;;;;;;;;;;;;;13.70;27.41;95580.66;5031474;28;20049;-65
2023/03/13 10:02:43;;;;;;;;;;;;;;;13.89;28.49;95578.31;5030632;28;20412;-60
2023/03/13 10:05:15;;;;;;;;;;;;;;;14.40;28.12;95582.69;5031454;28;19957;-63
2023/03/13 10:07:42;;;;;;;;;;;;;;;13.31;27.59;95582.03;5030812;28;19978;-63
2023/03/13 10:10:12;;;;;;;;;;;;;;;12.69;28.46;95571.34;5031006;28;19995;-63
2023/03/13 10:12:47;;;;;;;;;;;;;;;13.71;29.47;95560.34;5030514;28;19943;-62
2023/03/13 10:15:23;;;;;;;;;;;;;;;14.39;28.80;95561.84;5030951;28;20421;-64
2023/03/13 10:17:50;;;;;;;;;;;;;;;14.63;28.38;95553.19;5029817;28;20423;-62
2023/03/13 10:20:27;;;;;;;;;;;;;;;14.97;28.18;95543.63;5030417;28;19942;-61
2023/03/13 10:22:57;;;;;;;;;;;;;;;15.07;27.51;95537.56;5030856;28;20043;-62
2023/03/13 10:25:28;;;;;;;;;;;;;;;14.29;26.57;95546.81;5029722;28;20377;-64
2023/03/13 10:27:55;;;;;;;;;;;;;;;14.92;27.91;95529.66;5030802;28;20058;-63
2023/03/13 10:30:24;;;;;;;;;;;;;;;15.02;27.83;95519.88;5031011;28;19946;-62
2023/03/13 10:33:10;;;;;;;;;;;;;;;15.00;27.73;95516.69;5030980;28;20394;-63
2023/03/13 10:35:39;;;;;;;;;;;;;;;15.45;27.54;95507.91;5020049;28;19993;-66
2023/03/13 10:38:10;;;;;;;;;;;;;;;15.32;27.48;95513.72;5031297;28;19995;-62
2023/03/13 10:40:37;;;;;;;;;;;;;;;15.19;26.98;95517.72;5030686;28;19956;-63
2023/03/13 10:43:05;;;;;;;;;;;;;;;15.01;26.11;95505.09;5031239;28;20026;-65
2023/03/13 10:45:34;;;;;;;;;;;;;;;15.13;26.24;95496.88;5031207;28;19957;-64
2023/03/13 10:48:09;;;;;;;;;;;;;;;14.99;26.58;95493.22;5030871;28;19949;-63
2023/03/13 10:50:36;;;;;;;;;;;;;;;14.64;27.08;95502.00;5030642;28;20306;-64
2023/03/13 10:53:07;;;;;;;;;;;;;;;14.57;27.04;95501.47;5031484;28;20046;-63
2023/03/13 10:55:34;;;;;;;;;;;;;;;14.83;26.45;95487.19;5030738;28;19962;-62
2023/03/13 10:58:02;;;;;;;;;;;;;;;15.06;27.65;95483.97;5030034;28;19941;-65
2023/03/13 11:00:38;;;;;;;;;;;;;;;14.71;27.33;95489.31;5032607;28;20887;-66
2023/03/13 11:03:12;;;;;;;;;;;;;;;15.08;28.06;95484.50;5031360;28;19952;-65
2023/03/13 11:05:42;;;;;;;;;;;;;;;15.41;27.35;95475.16;5030508;28;19952;-65
2023/03/13 11:08:19;;;;;;;;;;;;;;;15.19;26.59;95478.13;5031002;28;19948;-64
2023/03/13 11:11:03;;;;;;;;;;;;;;;15.46;27.49;95472.50;5029771;28;19944;-64
2023/03/13 11:13:34;;;;;;;;;;;;;;;15.39;27.31;95455.31;5030995;28;19953;-63
2023/03/13 11:16:22;;;;;;;;;;;;;;;15.95;27.26;95451.31;5017572;28;20374;-67
2023/03/13 11:19:10;;;;;;;;;;;;;;;14.75;26.66;95460.56;5030571;28;20394;-65
2023/03/13 11:21:37;;;;;;;;;;;;;;;15.49;26.31;95455.31;5030641;28;19949;-64
2023/03/13 11:24:09;;;;;;;;;;;;;;;15.91;26.66;95442.41;5030558;28;19981;-62
2023/03/13 11:26:43;;;;;;;;;;;;;;;16.34;26.18;95446.81;5029114;28;19944;-61
2023/03/13 11:29:32;;;;;;;;;;;;;;;16.17;26.36;95441.91;5030773;28;20047;-61
2023/03/13 11:32:03;;;;;;;;;;;;;;;16.13;25.29;95429.50;5030616;28;19943;-63
2023/03/13 11:34:36;;;;;;;;;;;;;;;16.26;25.42;95436.81;5031817;28;20015;-63
2023/03/13 11:37:11;;;;;;;;;;;;;;;16.41;26.09;95431.41;5030870;28;19965;-63
2023/03/13 11:39:50;;;;;;;;;;;;;;;16.43;26.17;95418.69;5030968;28;19947;-63
2023/03/13 11:42:28;;;;;;;;;;;;;;;16.36;26.17;95418.22;5029232;28;19965;-62
2023/03/13 11:45:04;;;;;;;;;;;;;;;16.33;25.69;95418.78;5029895;28;20416;-64
2023/03/13 11:47:34;;;;;;;;;;;;;;;16.83;26.16;95406.94;5028976;28;19996;-64
2023/03/13 11:50:06;;;;;;;;;;;;;;;16.78;25.08;95405.16;5030426;28;20281;-62
2023/03/13 11:52:39;;;;;;;;;;;;;;;17.29;25.59;95393.94;5029767;28;19995;-66
2023/03/13 11:55:15;;;;;;;;;;;;;;;17.48;25.29;95381.53;5030113;28;20033;-61
2023/03/13 11:57:42;;;;;;;;;;;;;;;16.77;24.46;95392.97;5028192;28;19960;-63
2023/03/13 12:00:18;;;;;;;;;;;;;;;17.01;24.39;95385.81;5030159;28;20379;-64
2023/03/13 12:02:48;;;;;;;;;;;;;;;17.48;25.33;95381.53;5029514;28;19954;-63
2023/03/13 12:05:17;;;;;;;;;;;;;;;17.70;25.09;95363.97;5030276;28;20095;-63
2023/03/13 12:07:55;;;;;;;;;;;;;;;17.48;24.03;95365.66;5029291;28;20037;-65
2023/03/13 12:10:38;;;;;;;;;;;;;;;18.20;24.47;95362.38;5030279;28;19944;-64
2023/03/13 12:13:15;;;;;;;;;;;;;;;18.30;23.29;95351.59;5020482;28;19950;-62
2023/03/13 12:15:57;;;;;;;;;;;;;;;17.10;23.17;95360.28;5030150;28;19942;-66
2023/03/13 12:18:24;;;;;;;;;;;;;;;16.86;24.28;95354.22;5030866;28;19952;-62
2023/03/13 12:20:52;;;;;;;;;;;;;;;17.40;24.47;95340.56;5017195;28;20732;-65
2023/03/13 12:23:40;;;;;;;;;;;;;;;17.84;23.68;95337.53;5030467;28;19938;-62
2023/03/13 12:26:30;;;;;;;;;;;;;;;18.86;23.71;95327.47;5029314;28;20336;-61
2023/03/13 12:29:14;;;;;;;;;;;;;;;19.48;23.24;95334.69;5021298;28;19953;-64
2023/03/13 12:31:46;;;;;;;;;;;;;;;19.50;22.81;95331.72;5030907;28;19946;-66
2023/03/13 12:34:32;;;;;;;;;;;;;;;19.83;22.91;95333.06;5030912;28;20460;-64
2023/03/13 12:37:05;;;;;;;;;;;;;;;20.07;22.79;95323.69;5030731;28;19940;-66
2023/03/13 12:39:34;;;;;;;;;;;;;;;20.14;21.52;95320.59;5030613;28;19986;-65
2023/03/13 12:42:12;;;;;;;;;;;;;;;20.45;22.02;95316.09;5033967;28;20022;-65
2023/03/13 12:44:39;;;;;;;;;;;;;;;20.61;21.71;95319.91;5033895;28;20033;-66
2023/03/13 12:47:09;;;;;;;;;;;;;;;20.47;21.81;95324.56;5033517;28;19962;-66
2023/03/13 12:49:45;;;;;;;;;;;;;;;20.54;20.98;95319.59;5034570;28;19976;-64
2023/03/13 12:52:21;;;;;;;;;;;;;;;20.67;21.01;95321.38;5033402;28;20579;-65
2023/03/13 12:55:03;;;;;;;;;;;;;;;20.44;20.46;95325.16;5033087;28;20375;-63
2023/03/13 12:57:48;;;;;;;;;;;;;;;17.30;22.51;95342.56;5032857;28;19957;-62
2023/03/13 13:00:18;;;;;;;;;;;;;;;17.13;23.57;95343.81;5023116;28;20047;-64
2023/03/13 13:02:45;;;;;;;;;;;;;;;19.03;22.60;95322.34;5031134;28;20339;-67
2023/03/13 13:05:18;;;;;;;;;;;;;;;19.57;21.19;95329.44;5033144;28;20058;-64
2023/03/13 13:07:53;;;;;;;;;;;;;;;19.86;21.08;95335.13;5032635;28;19948;-64
2023/03/13 13:10:21;;;;;;;;;;;;;;;20.01;20.72;95332.09;5032817;28;19947;-66
2023/03/13 13:13:08;;;;;;;;;;;;;;;20.06;20.73;95324.00;5032218;28;19987;-64
2023/03/13 13:15:35;;;;;;;;;;;;;;;19.45;21.23;95334.50;5032021;28;19951;-64
2023/03/13 13:18:16;;;;;;;;;;;;;;;20.20;21.18;95324.72;5032857;28;20032;-65